createdAt,value
2018-08-13T00:01:18.168Z,3.10
2018-08-13T00:03:46.412Z,5.90
2018-08-13T00:06:14.768Z,4.55
2018-08-13T00:08:43.040Z,3.50
2018-08-13T00:11:11.362Z,3.47
2018-08-13T00:13:39.622Z,3.77
2018-08-13T00:16:08.002Z,6.72
2018-08-13T00:18:36.256Z,5.53
2018-08-13T00:21:04.595Z,4.42
2018-08-13T00:23:32.816Z,4.20
2018-08-13T00:26:01.084Z,5.97
2018-08-13T00:28:29.307Z,3.60
2018-08-13T00:30:57.592Z,4.60
2018-08-13T00:33:25.804Z,4.67
2018-08-13T00:35:54.066Z,8.60
2018-08-13T00:38:22.308Z,7.28
2018-08-13T00:40:50.682Z,4.17
2018-08-13T00:43:18.913Z,4.50
2018-08-13T00:45:47.228Z,6.35
2018-08-13T00:48:15.520Z,7.33
2018-08-13T00:50:43.794Z,4.80
2018-08-13T00:53:12.624Z,5.40
2018-08-13T00:55:40.866Z,3.87
2018-08-13T00:58:09.090Z,3.52
2018-08-13T01:00:37.366Z,4.60
2018-08-13T01:03:06.679Z,4.67
2018-08-13T01:05:35.653Z,5.28
2018-08-13T01:08:03.897Z,7.30
2018-08-13T01:10:32.200Z,6.92
2018-08-13T01:13:00.436Z,5.67
2018-08-13T01:15:28.664Z,6.72
2018-08-13T01:17:56.880Z,6.45
2018-08-13T01:20:25.122Z,10.13
2018-08-13T01:22:53.381Z,6.37
2018-08-13T01:25:21.617Z,5.85
2018-08-13T01:27:49.869Z,8.70
2018-08-13T01:30:19.233Z,6.10
2018-08-13T01:32:47.469Z,8.20
2018-08-13T01:35:15.728Z,8.90
2018-08-13T01:37:43.948Z,9.25
2018-08-13T01:40:12.884Z,4.87
2018-08-13T01:42:41.118Z,10.40
2018-08-13T01:45:10.919Z,9.35
2018-08-13T01:47:39.575Z,6.05
2018-08-13T01:50:09.669Z,10.98
2018-08-13T01:52:37.903Z,7.05
2018-08-13T01:55:07.649Z,8.35
2018-08-13T01:57:35.893Z,7.17
2018-08-13T02:00:07.319Z,6.78
2018-08-13T02:02:35.568Z,6.45
2018-08-13T02:05:04.293Z,9.28
2018-08-13T02:07:32.549Z,5.95
2018-08-13T02:10:00.815Z,4.55
2018-08-13T02:12:29.105Z,7.47
2018-08-13T02:14:57.322Z,7.33
2018-08-13T02:17:25.544Z,5.33
2018-08-13T02:19:53.768Z,4.42
2018-08-13T02:22:22.012Z,6.25
2018-08-13T02:24:50.281Z,10.80
2018-08-13T02:27:18.525Z,8.08
2018-08-13T02:29:46.836Z,7.03
2018-08-13T02:32:15.129Z,9.20
2018-08-13T02:34:43.354Z,5.20
2018-08-13T02:37:11.623Z,8.45
2018-08-13T02:39:39.846Z,8.50
2018-08-13T02:42:08.112Z,6.92
2018-08-13T02:44:36.347Z,7.53
2018-08-13T02:47:04.593Z,7.62
2018-08-13T02:49:32.806Z,8.80
2018-08-13T02:52:01.041Z,9.25
2018-08-13T02:54:29.276Z,7.50
2018-08-13T02:56:57.520Z,9.33
2018-08-13T02:59:25.752Z,7.58
2018-08-13T03:01:53.986Z,6.50
2018-08-13T03:04:22.224Z,5.83
2018-08-13T03:06:50.513Z,6.85
2018-08-13T03:09:18.743Z,7.47
2018-08-13T03:11:47.013Z,7.28
2018-08-13T03:14:15.253Z,7.03
2018-08-13T03:16:43.657Z,5.60
2018-08-13T03:19:12.723Z,7.00
2018-08-13T03:21:40.977Z,5.90
2018-08-13T03:24:09.187Z,6.72
2018-08-13T03:26:37.400Z,6.05
2018-08-13T03:29:05.660Z,6.50
2018-08-13T03:31:33.951Z,8.23
2018-08-13T03:34:02.230Z,6.42
2018-08-13T03:36:30.489Z,9.85
2018-08-13T03:38:58.761Z,7.20
2018-08-13T03:41:27.052Z,6.83
2018-08-13T03:43:55.400Z,7.40
2018-08-13T03:46:23.681Z,6.05
2018-08-13T03:48:51.934Z,6.80
2018-08-13T03:51:20.177Z,6.30
2018-08-13T03:53:48.500Z,7.70
2018-08-13T03:56:16.701Z,6.15
2018-08-13T03:58:44.937Z,6.30
2018-08-13T04:01:13.206Z,6.42
2018-08-13T04:03:41.452Z,5.55
2018-08-13T04:06:09.709Z,7.65
2018-08-13T04:08:38.237Z,5.47
2018-08-13T04:11:06.577Z,8.00
2018-08-13T04:13:34.955Z,6.37
2018-08-13T04:16:03.210Z,6.10
2018-08-13T04:18:31.457Z,5.55
2018-08-13T04:20:59.708Z,6.22
2018-08-13T04:23:27.928Z,5.67
2018-08-13T04:25:56.163Z,6.47
2018-08-13T04:28:24.401Z,8.43
2018-08-13T04:30:52.645Z,7.15
2018-08-13T04:33:20.865Z,7.53
2018-08-13T04:35:49.124Z,6.45
2018-08-13T04:38:17.356Z,7.17
2018-08-13T04:40:45.611Z,7.55
2018-08-13T04:43:13.876Z,7.17
2018-08-13T04:45:42.112Z,6.62
2018-08-13T04:48:10.431Z,9.40
2018-08-13T04:50:38.699Z,6.55
2018-08-13T04:53:06.931Z,6.87
2018-08-13T04:55:35.172Z,6.28
2018-08-13T04:58:03.489Z,7.25
2018-08-13T05:00:31.764Z,6.10
2018-08-13T05:02:59.999Z,7.97
2018-08-13T05:05:28.252Z,7.87
2018-08-13T05:07:56.529Z,5.47
2018-08-13T05:10:24.745Z,7.40
2018-08-13T05:12:52.994Z,8.28
2018-08-13T05:15:21.228Z,7.35
2018-08-13T05:17:49.526Z,9.10
2018-08-13T05:20:17.758Z,4.83
2018-08-13T05:22:46.897Z,5.30
2018-08-13T05:25:15.133Z,5.08
2018-08-13T05:27:44.757Z,6.97
2018-08-13T05:30:13.657Z,6.45
2018-08-13T05:32:41.920Z,6.10
2018-08-13T05:35:10.336Z,6.37
2018-08-13T05:37:38.981Z,7.87
2018-08-13T05:40:08.961Z,6.45
2018-08-13T05:42:37.282Z,5.20
2018-08-13T05:45:06.830Z,7.35
2018-08-13T05:47:35.061Z,5.40
2018-08-13T05:50:03.334Z,4.62
2018-08-13T05:52:31.561Z,4.87
2018-08-13T05:54:59.850Z,4.15
2018-08-13T05:57:28.146Z,4.53
2018-08-13T05:59:56.530Z,5.97
2018-08-13T06:02:24.800Z,7.72
2018-08-13T06:04:53.074Z,5.65
2018-08-13T06:07:21.353Z,7.37
2018-08-13T06:09:49.585Z,5.55
2018-08-13T06:12:17.813Z,4.50
2018-08-13T06:14:46.077Z,5.12
2018-08-13T06:17:14.372Z,13.08
2018-08-13T06:19:42.713Z,5.17
2018-08-13T06:22:10.979Z,5.12
2018-08-13T06:24:39.238Z,4.03
2018-08-13T06:27:07.531Z,6.22
2018-08-13T06:29:35.771Z,7.45
2018-08-13T06:32:04.098Z,20.85
2018-08-13T06:34:32.350Z,7.83
2018-08-13T06:37:00.641Z,7.90
2018-08-13T06:39:29.698Z,8.58
2018-08-13T06:41:58.305Z,7.65
2018-08-13T06:44:26.573Z,7.50
2018-08-13T06:46:54.814Z,7.62
2018-08-13T06:49:23.084Z,7.15
2018-08-13T06:51:51.380Z,8.43
2018-08-13T06:54:19.616Z,9.23
2018-08-13T06:56:47.856Z,8.33
2018-08-13T06:59:16.143Z,7.87
2018-08-13T07:01:50.816Z,10.65
2018-08-13T07:04:19.060Z,8.00
2018-08-13T07:06:48.133Z,7.60
2018-08-13T07:09:16.457Z,9.60
2018-08-13T07:11:44.765Z,9.18
2018-08-13T07:14:13.061Z,9.90
2018-08-13T07:16:41.402Z,8.53
2018-08-13T07:19:09.701Z,6.45
2018-08-13T07:21:37.992Z,5.87
2018-08-13T07:24:06.382Z,6.15
2018-08-13T07:26:34.625Z,5.15
2018-08-13T07:29:03.005Z,6.35
2018-08-13T07:31:31.288Z,3.17
2018-08-13T07:34:00.286Z,4.78
2018-08-13T07:36:28.572Z,6.62
2018-08-13T07:38:56.921Z,3.92
2018-08-13T07:41:25.164Z,3.98
2018-08-13T07:43:53.446Z,3.75
2018-08-13T07:46:21.868Z,3.83
2018-08-13T07:48:50.213Z,4.72
2018-08-13T07:51:19.378Z,3.98
2018-08-13T07:53:47.756Z,4.95
2018-08-13T07:56:16.063Z,3.80
2018-08-13T07:58:44.382Z,5.35
2018-08-13T08:01:12.779Z,5.45
2018-08-13T08:03:43.197Z,5.90
2018-08-13T08:06:12.378Z,8.23
2018-08-13T08:08:43.061Z,6.92
2018-08-13T08:11:11.969Z,4.22
2018-08-13T08:13:40.533Z,8.38
2018-08-13T08:16:08.877Z,7.33
2018-08-13T08:18:37.586Z,6.85
2018-08-13T08:21:05.954Z,6.75
2018-08-13T08:23:34.212Z,6.75
2018-08-13T08:26:03.411Z,5.40
2018-08-13T08:28:31.649Z,4.75
2018-08-13T08:31:02.706Z,4.10
2018-08-13T08:33:31.031Z,5.47
2018-08-13T08:35:59.342Z,4.65
2018-08-13T08:38:28.829Z,5.28
2018-08-13T08:40:57.229Z,4.72
2018-08-13T08:43:26.669Z,6.20
2018-08-13T08:45:55.395Z,5.50
2018-08-13T08:48:23.692Z,5.62
2018-08-13T08:50:52.005Z,6.03
2018-08-13T08:53:20.438Z,5.25
2018-08-13T08:55:48.840Z,5.35
2018-08-13T08:58:18.994Z,6.37
2018-08-13T09:00:48.439Z,5.45
2018-08-13T09:04:59.914Z,6.05
2018-08-13T09:07:28.928Z,4.55
2018-08-13T09:09:57.214Z,4.00
2018-08-13T09:12:25.625Z,5.15
2018-08-13T09:14:53.957Z,5.25
2018-08-13T09:17:29.490Z,5.97
2018-08-13T09:20:09.195Z,7.95
2018-08-13T09:22:48.820Z,13.30
2018-08-13T09:25:28.510Z,8.30
2018-08-13T09:28:08.164Z,4.53
2018-08-13T09:30:47.830Z,2.92
2018-08-13T09:33:27.622Z,5.33
2018-08-13T09:35:59.759Z,3.22
2018-08-13T09:38:29.329Z,4.80
2018-08-13T09:40:59.075Z,3.22
2018-08-13T09:43:28.351Z,3.70
2018-08-13T09:45:56.712Z,3.98
2018-08-13T09:48:26.317Z,4.08
2018-08-13T09:50:55.830Z,3.45
2018-08-13T09:53:24.231Z,3.90
2018-08-13T09:55:52.545Z,8.78
2018-08-13T09:58:20.841Z,5.65
2018-08-13T10:00:55.395Z,7.47
2018-08-13T10:03:23.782Z,4.30
2018-08-13T10:05:52.695Z,4.33
2018-08-13T10:08:21.135Z,4.75
2018-08-13T10:10:49.814Z,5.00
2018-08-13T10:13:19.152Z,4.47
2018-08-13T10:15:49.077Z,4.45
2018-08-13T10:18:17.506Z,4.00
2018-08-13T10:20:46.815Z,6.53
2018-08-13T10:23:15.628Z,5.33
2018-08-13T10:25:45.248Z,5.37
2018-08-13T10:28:13.761Z,5.47
2018-08-13T10:30:42.622Z,9.90
2018-08-13T10:33:18.820Z,7.45
2018-08-13T10:35:48.835Z,5.70
2018-08-13T10:38:19.765Z,5.47
2018-08-13T10:40:52.373Z,5.62
2018-08-13T10:43:21.819Z,6.85
2018-08-13T10:45:50.305Z,4.78
2018-08-13T10:48:19.549Z,4.75
2018-08-13T10:50:48.871Z,5.42
2018-08-13T10:53:18.618Z,5.80
2018-08-13T10:55:47.227Z,6.45
2018-08-13T10:58:16.953Z,5.40
2018-08-13T11:00:45.339Z,5.67
2018-08-13T11:03:14.515Z,4.90
2018-08-13T11:05:43.008Z,5.05
2018-08-13T11:08:11.329Z,5.33
2018-08-13T11:10:40.057Z,5.28
2018-08-13T11:13:08.423Z,5.42
2018-08-13T11:15:36.698Z,5.35
2018-08-13T11:18:05.159Z,5.42
2018-08-13T11:20:34.187Z,6.00
2018-08-13T11:23:03.163Z,7.65
2018-08-13T11:25:31.547Z,3.58
2018-08-13T11:28:00.329Z,3.60
2018-08-13T11:32:14.394Z,3.87
2018-08-13T11:34:43.264Z,3.00
2018-08-13T11:37:12.162Z,2.52
2018-08-13T11:39:40.429Z,3.30
2018-08-13T11:42:08.741Z,3.92
2018-08-13T11:44:37.059Z,2.35
2018-08-13T11:47:05.928Z,2.00
2018-08-13T11:49:34.409Z,1.82
2018-08-13T11:52:02.718Z,1.98
2018-08-13T11:54:30.977Z,1.87
2018-08-13T11:56:59.973Z,2.00
2018-08-13T11:59:28.299Z,1.95
2018-08-13T12:01:56.624Z,1.95
2018-08-13T12:04:24.964Z,2.40
2018-08-13T12:06:53.232Z,4.17
2018-08-13T12:09:21.537Z,3.10
2018-08-13T12:11:49.908Z,4.10
2018-08-13T12:14:18.163Z,4.60
2018-08-13T12:16:46.426Z,4.95
2018-08-13T12:19:14.796Z,5.67
2018-08-13T12:21:43.120Z,3.47
2018-08-13T12:24:11.389Z,1.77
2018-08-13T12:26:39.744Z,3.60
2018-08-13T12:29:10.861Z,4.67
2018-08-13T12:31:39.749Z,2.25
2018-08-13T12:34:08.148Z,5.97
2018-08-13T12:36:36.925Z,3.77
2018-08-13T12:39:08.667Z,6.50
2018-08-13T12:41:37.151Z,2.20
2018-08-13T12:44:06.116Z,4.47
2018-08-13T12:46:34.690Z,3.27
2018-08-13T12:49:06.432Z,2.17
2018-08-13T12:51:34.681Z,2.27
2018-08-13T12:54:03.001Z,2.30
2018-08-13T12:56:31.301Z,3.10
2018-08-13T12:58:59.629Z,4.05
2018-08-13T13:01:28.493Z,3.72
2018-08-13T13:03:56.861Z,2.85
2018-08-13T13:06:26.348Z,4.22
2018-08-13T13:08:54.762Z,4.40
2018-08-13T13:11:23.039Z,6.12
2018-08-13T13:13:51.376Z,3.52
2018-08-13T13:16:20.493Z,4.00
2018-08-13T13:18:50.155Z,2.27
2018-08-13T13:21:18.403Z,2.47
2018-08-13T13:23:48.801Z,2.33
2018-08-13T13:26:17.197Z,3.55
2018-08-13T13:28:45.592Z,5.00
2018-08-13T13:31:15.422Z,5.08
2018-08-13T13:33:43.926Z,6.12
2018-08-13T13:36:12.985Z,4.87
2018-08-13T13:38:41.318Z,5.62
2018-08-13T13:41:09.637Z,4.78
2018-08-13T13:43:38.011Z,8.23
2018-08-13T13:46:06.867Z,4.80
2018-08-13T13:48:36.373Z,5.85
2018-08-13T13:51:04.634Z,5.47
2018-08-13T13:53:33.002Z,5.75
2018-08-13T13:56:02.309Z,4.97
2018-08-13T13:58:31.938Z,2.77
2018-08-13T14:01:00.194Z,5.78
2018-08-13T14:03:29.445Z,4.42
2018-08-13T14:05:57.717Z,2.50
2018-08-13T14:08:25.973Z,5.45
2018-08-13T14:10:54.276Z,2.65
2018-08-13T14:13:22.516Z,3.40
2018-08-13T14:15:51.600Z,3.30
2018-08-13T14:18:19.912Z,2.12
2018-08-13T14:20:54.826Z,5.75
2018-08-13T14:23:36.396Z,3.87
2018-08-13T14:26:06.060Z,2.90
2018-08-13T14:28:35.137Z,2.30
2018-08-13T14:31:03.934Z,3.27
2018-08-13T14:33:32.407Z,2.00
2018-08-13T14:36:04.638Z,4.22
2018-08-13T14:38:33.912Z,3.55
2018-08-13T14:41:02.434Z,2.72
2018-08-13T14:43:31.042Z,1.85
2018-08-13T14:45:59.319Z,2.17
2018-08-13T14:48:29.941Z,3.72
2018-08-13T14:50:58.223Z,1.55
2018-08-13T14:53:26.430Z,2.90
2018-08-13T14:55:54.684Z,1.40
2018-08-13T14:58:22.941Z,2.22
2018-08-13T15:00:51.266Z,1.62
2018-08-13T15:03:19.605Z,4.40
2018-08-13T15:05:47.981Z,1.42
2018-08-13T15:08:16.226Z,3.52
2018-08-13T15:10:44.591Z,1.37
2018-08-13T15:13:13.910Z,2.20
2018-08-13T15:15:42.330Z,1.70
2018-08-13T15:18:11.333Z,2.83
2018-08-13T15:20:40.259Z,1.57
2018-08-13T15:23:08.573Z,1.75
2018-08-13T15:25:36.932Z,1.30
2018-08-13T15:28:05.269Z,2.08
2018-08-13T15:30:33.638Z,1.72
2018-08-13T15:33:02.079Z,2.50
2018-08-13T15:35:30.589Z,1.77
2018-08-13T15:37:58.936Z,4.95
2018-08-13T15:40:27.261Z,5.17
2018-08-13T15:42:55.607Z,2.20
2018-08-13T15:45:24.577Z,1.75
2018-08-13T15:47:52.895Z,2.70
2018-08-13T15:50:22.421Z,2.58
2018-08-13T15:52:51.004Z,1.92
2018-08-13T15:55:19.460Z,3.67
2018-08-13T15:57:47.920Z,2.75
2018-08-13T16:00:19.528Z,2.83
2018-08-13T16:02:48.108Z,3.12
2018-08-13T16:05:16.482Z,5.05
2018-08-13T16:07:51.918Z,1.47
2018-08-13T16:10:20.160Z,4.53
2018-08-13T16:12:48.563Z,5.12
2018-08-13T16:15:16.883Z,3.80
2018-08-13T16:17:45.183Z,4.25
2018-08-13T16:20:15.681Z,2.77
2018-08-13T16:22:44.890Z,2.00
2018-08-13T16:25:14.561Z,3.92
2018-08-13T16:27:43.356Z,4.25
2018-08-13T16:30:18.302Z,4.45
2018-08-13T16:32:47.775Z,4.83
2018-08-13T16:35:16.924Z,4.92
2018-08-13T16:37:45.609Z,5.05
2018-08-13T16:40:14.651Z,3.55
2018-08-13T16:42:42.996Z,3.50
2018-08-13T16:45:12.532Z,3.58
2018-08-13T16:47:40.812Z,3.22
2018-08-13T16:50:17.903Z,2.98
2018-08-13T16:52:46.275Z,3.67
2018-08-13T16:55:14.636Z,5.05
2018-08-13T16:57:43.517Z,3.02
2018-08-13T17:00:14.384Z,4.22
2018-08-13T17:02:42.623Z,3.02
2018-08-13T17:05:12.404Z,2.75
2018-08-13T17:07:42.262Z,4.85
2018-08-13T17:10:20.609Z,4.78
2018-08-13T17:12:50.670Z,4.10
2018-08-13T17:15:19.135Z,3.20
2018-08-13T17:17:50.560Z,3.40
2018-08-13T17:20:27.350Z,5.62
2018-08-13T17:22:55.874Z,4.80
2018-08-13T17:25:24.402Z,4.40
2018-08-13T17:27:54.275Z,6.55
2018-08-13T17:30:26.275Z,3.37
2018-08-13T17:32:57.448Z,6.08
2018-08-13T17:35:30.310Z,5.75
2018-08-13T17:37:59.302Z,5.25
2018-08-13T17:40:28.228Z,8.00
2018-08-13T17:42:58.154Z,4.30
2018-08-13T17:45:27.065Z,5.33
2018-08-13T17:47:55.366Z,5.75
2018-08-13T17:50:23.876Z,5.70
2018-08-13T17:52:52.181Z,5.60
2018-08-13T17:55:20.461Z,4.60
2018-08-13T17:57:48.875Z,5.75
2018-08-13T18:00:21.648Z,5.70
2018-08-13T18:02:49.976Z,8.83
2018-08-13T18:05:20.440Z,6.85
2018-08-13T18:07:49.061Z,6.75
2018-08-13T18:10:21.783Z,8.33
2018-08-13T18:12:50.061Z,9.48
2018-08-13T18:15:18.444Z,5.70
2018-08-13T18:17:47.172Z,4.15
2018-08-13T18:20:15.448Z,5.42
2018-08-13T18:22:43.790Z,6.65
2018-08-13T18:25:13.608Z,6.65
2018-08-13T18:27:43.155Z,7.90
2018-08-13T18:30:17.390Z,10.40
2018-08-13T18:32:45.754Z,7.30
2018-08-13T18:35:14.390Z,6.62
2018-08-13T18:37:42.791Z,6.35
2018-08-13T18:40:17.005Z,6.50
2018-08-13T18:42:45.777Z,5.25
2018-08-13T18:45:14.399Z,11.12
2018-08-13T18:47:42.901Z,5.80
2018-08-13T18:50:15.595Z,5.70
2018-08-13T18:52:44.519Z,6.87
2018-08-13T18:55:14.476Z,5.85
2018-08-13T18:57:42.761Z,4.80
2018-08-13T19:00:13.479Z,6.47
2018-08-13T19:02:42.399Z,6.10
2018-08-13T19:05:21.460Z,9.03
2018-08-13T19:07:50.399Z,10.45
2018-08-13T19:10:20.479Z,4.53
2018-08-13T19:12:48.877Z,10.72
2018-08-13T19:15:20.120Z,5.58
2018-08-13T19:17:49.481Z,5.37
2018-08-13T19:20:17.821Z,5.45
2018-08-13T19:22:46.163Z,8.25
2018-08-13T19:25:17.578Z,5.65
2018-08-13T19:27:46.041Z,4.65
2018-08-13T19:30:16.610Z,9.80
2018-08-13T19:32:46.086Z,6.30
2018-08-13T19:35:14.317Z,7.12
2018-08-13T19:37:42.586Z,6.78
2018-08-13T19:40:13.707Z,7.95
2018-08-13T19:42:42.169Z,6.90
2018-08-13T19:45:11.679Z,5.65
2018-08-13T19:47:39.920Z,6.83
2018-08-13T19:50:09.760Z,9.93
2018-08-13T19:52:38.400Z,8.68
2018-08-13T19:55:07.564Z,5.95
2018-08-13T19:57:35.833Z,8.28
2018-08-13T20:00:06.918Z,9.18
2018-08-13T20:02:35.270Z,8.88
2018-08-13T20:05:03.556Z,11.38
2018-08-13T20:07:31.804Z,9.70
2018-08-13T20:10:00.039Z,6.30
2018-08-13T20:12:28.321Z,10.50
2018-08-13T20:14:56.574Z,6.85
2018-08-13T20:17:27.565Z,5.83
2018-08-13T20:19:56.448Z,6.17
2018-08-13T20:22:24.902Z,10.78
2018-08-13T20:24:53.141Z,7.83
2018-08-13T20:27:21.421Z,9.05
2018-08-13T20:29:49.670Z,7.83
2018-08-13T20:32:17.925Z,8.08
2018-08-13T20:34:46.162Z,7.95
2018-08-13T20:37:14.542Z,10.38
2018-08-13T20:39:42.798Z,6.70
2018-08-13T20:42:12.028Z,5.92
2018-08-13T20:44:40.273Z,8.68
2018-08-13T20:47:08.579Z,6.55
2018-08-13T20:49:37.265Z,6.35
2018-08-13T20:52:05.508Z,8.25
2018-08-13T20:54:33.772Z,10.55
2018-08-13T20:57:02.391Z,7.25
2018-08-13T20:59:30.637Z,11.12
2018-08-13T21:01:58.893Z,7.92
2018-08-13T21:04:27.348Z,7.95
2018-08-13T21:06:55.693Z,7.22
2018-08-13T21:09:23.994Z,9.85
2018-08-13T21:11:52.257Z,7.20
2018-08-13T21:14:20.517Z,9.35
2018-08-13T21:16:49.540Z,12.90
2018-08-13T21:19:17.890Z,7.72
2018-08-13T21:21:46.233Z,9.70
2018-08-13T21:24:14.494Z,8.93
2018-08-13T21:26:42.808Z,7.80
2018-08-13T21:29:12.030Z,7.50
2018-08-13T21:31:40.335Z,7.72
2018-08-13T21:34:08.596Z,8.45
2018-08-13T21:36:36.831Z,7.28
2018-08-13T21:39:07.079Z,6.90
2018-08-13T21:41:35.330Z,6.80
2018-08-13T21:44:04.621Z,6.90
2018-08-13T21:46:32.913Z,8.45
2018-08-13T21:49:01.172Z,6.95
2018-08-13T21:51:29.572Z,8.70
2018-08-13T21:53:57.904Z,8.88
2018-08-13T21:56:26.575Z,10.85
2018-08-13T21:58:54.859Z,9.80
2018-08-13T22:01:28.568Z,9.70
2018-08-13T22:03:56.992Z,6.92
2018-08-13T22:06:25.293Z,7.80
2018-08-13T22:08:53.656Z,8.43
2018-08-13T22:11:21.955Z,8.63
2018-08-13T22:13:50.256Z,9.45
2018-08-13T22:16:18.548Z,9.08
2018-08-13T22:18:46.840Z,6.60
2018-08-13T22:21:15.159Z,8.35
2018-08-13T22:23:54.781Z,5.62
2018-08-13T22:26:23.052Z,9.00
2018-08-13T22:28:51.288Z,9.15
2018-08-13T22:31:19.532Z,6.95
2018-08-13T22:33:47.786Z,8.45
2018-08-13T22:36:16.154Z,9.13
2018-08-13T22:38:44.347Z,7.42
2018-08-13T22:41:12.597Z,7.60
2018-08-13T22:43:40.825Z,6.72
2018-08-13T22:46:09.270Z,6.75
2018-08-13T22:48:37.556Z,9.78
2018-08-13T22:51:06.085Z,6.72
2018-08-13T22:53:34.350Z,8.40
2018-08-13T22:56:02.619Z,7.92
2018-08-13T22:58:30.837Z,7.95
2018-08-13T23:00:59.093Z,7.25
2018-08-13T23:03:27.342Z,7.75
2018-08-13T23:05:55.582Z,7.45
2018-08-13T23:08:23.856Z,8.60
2018-08-13T23:13:26.658Z,11.05
2018-08-13T23:15:54.913Z,9.55
2018-08-13T23:18:23.131Z,8.55
2018-08-13T23:20:51.361Z,9.15
2018-08-13T23:23:19.592Z,8.70
2018-08-13T23:25:47.889Z,11.30
2018-08-13T23:28:16.110Z,8.38
2018-08-13T23:30:44.345Z,13.78
2018-08-13T23:33:12.684Z,13.08
2018-08-13T23:35:40.929Z,9.35
2018-08-13T23:38:09.177Z,8.88
2018-08-13T23:40:37.423Z,10.53
2018-08-13T23:43:05.675Z,9.23
2018-08-13T23:45:34.002Z,12.18
2018-08-13T23:48:02.259Z,11.48
2018-08-13T23:50:30.519Z,9.20
2018-08-13T23:53:00.357Z,8.88
2018-08-13T23:55:31.365Z,13.98
2018-08-13T23:58:00.153Z,9.88
